createdAt,value
2019-05-12T00:00:39.258Z,0.00
2019-05-12T00:01:38.965Z,0.00
2019-05-12T00:02:39.662Z,0.00
2019-05-12T00:03:37.894Z,0.00
2019-05-12T00:04:38.497Z,0.00
2019-05-12T00:05:38.271Z,0.00
2019-05-12T00:06:38.711Z,0.00
2019-05-12T00:07:38.340Z,0.00
2019-05-12T00:08:38.212Z,0.00
2019-05-12T00:09:38.830Z,0.00
2019-05-12T00:10:38.791Z,0.00
2019-05-12T00:11:37.993Z,0.00
2019-05-12T00:12:38.558Z,0.00
2019-05-12T00:13:38.548Z,0.00
2019-05-12T00:14:38.143Z,0.00
2019-05-12T00:15:38.513Z,0.00
2019-05-12T00:16:38.445Z,0.00
2019-05-12T00:17:38.847Z,0.00
2019-05-12T00:18:37.876Z,0.00
2019-05-12T00:19:37.813Z,0.00
2019-05-12T00:20:38.687Z,0.00
2019-05-12T00:21:39.724Z,0.00
2019-05-12T00:22:38.172Z,0.00
2019-05-12T00:23:38.213Z,0.00
2019-05-12T00:24:38.304Z,0.00
2019-05-12T00:25:38.723Z,0.00
2019-05-12T00:26:38.315Z,0.00
2019-05-12T00:27:38.846Z,0.00
2019-05-12T00:28:37.689Z,0.00
2019-05-12T00:29:37.869Z,0.00
2019-05-12T00:30:38.804Z,0.00
2019-05-12T00:31:38.262Z,0.00
2019-05-12T00:32:38.584Z,0.00
2019-05-12T00:33:38.545Z,0.00
2019-05-12T00:34:38.554Z,0.00
2019-05-12T00:35:38.092Z,0.00
2019-05-12T00:36:37.959Z,0.00
2019-05-12T00:37:38.197Z,0.00
2019-05-12T00:38:38.164Z,0.00
2019-05-12T00:39:38.235Z,0.00
2019-05-12T00:40:39.312Z,0.00
2019-05-12T00:41:39.004Z,0.00
2019-05-12T00:42:38.105Z,0.00
2019-05-12T00:43:38.252Z,0.00
2019-05-12T00:44:39.046Z,0.00
2019-05-12T00:45:38.564Z,0.00
2019-05-12T00:46:38.557Z,0.00
2019-05-12T00:47:38.906Z,0.00
2019-05-12T00:48:37.615Z,0.00
2019-05-12T00:49:37.926Z,0.00
2019-05-12T00:50:38.166Z,0.00
2019-05-12T00:51:38.428Z,0.00
2019-05-12T00:52:38.608Z,0.00
2019-05-12T00:53:40.882Z,0.00
2019-05-12T00:54:37.582Z,0.00
2019-05-12T00:55:38.136Z,0.00
2019-05-12T00:56:38.960Z,0.00
2019-05-12T00:57:38.265Z,0.00
2019-05-12T00:58:38.230Z,0.00
2019-05-12T00:59:38.270Z,0.00
2019-05-12T01:00:39.959Z,0.00
2019-05-12T01:01:38.040Z,0.00
2019-05-12T01:02:37.952Z,0.00
2019-05-12T01:03:38.169Z,0.00
2019-05-12T01:04:38.122Z,0.00
2019-05-12T01:05:38.287Z,0.00
2019-05-12T01:06:38.658Z,0.00
2019-05-12T01:07:38.189Z,0.00
2019-05-12T01:08:38.305Z,0.00
2019-05-12T01:09:38.549Z,0.00
2019-05-12T01:10:38.902Z,0.00
2019-05-12T01:11:37.891Z,0.00
2019-05-12T01:12:38.304Z,0.00
2019-05-12T01:13:38.248Z,0.00
2019-05-12T01:14:38.347Z,0.00
2019-05-12T01:15:37.761Z,0.00
2019-05-12T01:16:38.521Z,0.00
2019-05-12T01:17:40.072Z,0.00
2019-05-12T01:18:38.431Z,0.00
2019-05-12T01:19:37.473Z,0.00
2019-05-12T01:20:38.767Z,0.00
2019-05-12T01:21:37.628Z,0.00
2019-05-12T01:22:38.360Z,0.00
2019-05-12T01:23:50.202Z,0.00
2019-05-12T01:24:37.908Z,0.00
2019-05-12T01:25:36.358Z,0.00
2019-05-12T01:26:38.561Z,0.00
2019-05-12T01:27:38.140Z,0.00
2019-05-12T01:28:38.295Z,0.00
2019-05-12T01:29:38.423Z,0.00
2019-05-12T01:30:38.691Z,0.00
2019-05-12T01:31:37.799Z,0.00
2019-05-12T01:32:38.173Z,0.00
2019-05-12T01:33:38.083Z,0.00
2019-05-12T01:34:38.235Z,0.00
2019-05-12T01:35:38.438Z,0.00
2019-05-12T01:36:38.132Z,0.00
2019-05-12T01:37:38.317Z,0.00
2019-05-12T01:38:37.941Z,0.00
2019-05-12T01:39:38.252Z,0.00
2019-05-12T01:40:38.521Z,0.00
2019-05-12T01:41:36.056Z,0.00
2019-05-12T01:42:38.270Z,0.00
2019-05-12T01:43:38.079Z,0.00
2019-05-12T01:44:38.214Z,0.00
2019-05-12T01:45:37.992Z,0.00
2019-05-12T01:46:38.158Z,0.00
2019-05-12T01:47:38.134Z,0.00
2019-05-12T01:48:37.770Z,0.00
2019-05-12T01:49:38.241Z,0.00
2019-05-12T01:50:38.304Z,0.00
2019-05-12T01:51:38.257Z,0.00
2019-05-12T01:52:35.845Z,0.00
2019-05-12T01:53:37.865Z,0.00
2019-05-12T01:54:37.956Z,0.00
2019-05-12T01:55:35.789Z,0.00
2019-05-12T01:56:38.116Z,0.00
2019-05-12T01:57:38.270Z,0.00
2019-05-12T01:58:38.029Z,0.00
2019-05-12T01:59:38.017Z,0.00
2019-05-12T02:00:38.366Z,0.00
2019-05-12T02:01:35.677Z,0.00
2019-05-12T02:02:35.657Z,0.00
2019-05-12T02:03:37.630Z,0.00
2019-05-12T02:04:37.565Z,0.00
2019-05-12T02:05:37.946Z,0.00
2019-05-12T02:06:38.385Z,0.00
2019-05-12T02:07:35.561Z,0.00
2019-05-12T02:08:35.561Z,0.00
2019-05-12T02:09:35.530Z,0.00
2019-05-12T02:10:35.508Z,0.00
2019-05-12T02:11:37.817Z,0.00
2019-05-12T02:12:38.143Z,0.00
2019-05-12T02:13:37.997Z,0.00
2019-05-12T02:14:35.428Z,0.00
2019-05-12T02:15:35.409Z,0.00
2019-05-12T02:16:35.392Z,0.00
2019-05-12T02:17:35.373Z,0.00
2019-05-12T02:18:35.357Z,0.00
2019-05-12T02:19:35.333Z,0.00
2019-05-12T02:20:35.313Z,0.00
2019-05-12T02:21:35.300Z,0.00
2019-05-12T02:22:35.277Z,0.00
2019-05-12T02:23:35.257Z,0.00
2019-05-12T02:24:35.238Z,0.00
2019-05-12T02:25:37.310Z,0.00
2019-05-12T02:26:35.201Z,0.00
2019-05-12T02:27:35.189Z,0.00
2019-05-12T02:28:35.162Z,0.00
2019-05-12T02:29:35.144Z,0.00
2019-05-12T02:30:35.132Z,0.00
2019-05-12T02:31:35.126Z,0.00
2019-05-12T02:32:44.545Z,0.00
2019-05-12T02:33:35.695Z,0.00
2019-05-12T02:34:35.193Z,0.00
2019-05-12T02:35:35.637Z,0.00
2019-05-12T02:36:35.011Z,0.00
2019-05-12T02:37:35.948Z,0.00
2019-05-12T02:38:34.973Z,0.00
2019-05-12T02:39:35.402Z,0.00
2019-05-12T02:40:35.288Z,0.00
2019-05-12T02:41:34.920Z,0.00
2019-05-12T02:42:35.078Z,0.00
2019-05-12T02:43:34.980Z,4.00
2019-05-12T02:44:34.869Z,4.00
2019-05-12T02:45:35.873Z,4.00
2019-05-12T02:46:35.185Z,0.00
2019-05-12T02:47:34.954Z,0.00
2019-05-12T02:48:35.593Z,4.00
2019-05-12T02:49:35.011Z,4.00
2019-05-12T02:50:35.552Z,4.00
2019-05-12T02:51:35.332Z,8.00
2019-05-12T02:52:34.981Z,4.00
2019-05-12T02:53:35.245Z,4.00
2019-05-12T02:54:50.697Z,8.00
2019-05-12T02:55:35.479Z,8.00
2019-05-12T02:56:35.698Z,8.00
2019-05-12T02:57:34.611Z,8.00
2019-05-12T02:58:34.882Z,12.00
2019-05-12T02:59:34.932Z,12.00
2019-05-12T03:00:35.573Z,16.00
2019-05-12T03:01:34.822Z,12.00
2019-05-12T03:02:34.850Z,12.00
2019-05-12T03:03:35.313Z,16.00
2019-05-12T03:04:35.069Z,16.00
2019-05-12T03:05:35.133Z,24.00
2019-05-12T03:06:36.151Z,24.00
2019-05-12T03:07:34.732Z,24.00
2019-05-12T03:08:35.033Z,28.00
2019-05-12T03:09:35.292Z,28.00
2019-05-12T03:10:35.474Z,28.00
2019-05-12T03:11:35.467Z,32.00
2019-05-12T03:12:34.596Z,36.00
2019-05-12T03:13:34.765Z,36.00
2019-05-12T03:14:40.280Z,40.00
2019-05-12T03:15:36.340Z,40.00
2019-05-12T03:16:35.104Z,44.00
2019-05-12T03:17:35.546Z,48.00
2019-05-12T03:18:34.879Z,52.00
2019-05-12T03:19:34.624Z,60.00
2019-05-12T03:20:35.422Z,60.00
2019-05-12T03:21:35.209Z,68.00
2019-05-12T03:22:35.281Z,72.00
2019-05-12T03:23:35.203Z,80.00
2019-05-12T03:24:34.310Z,88.00
2019-05-12T03:25:35.708Z,100.00
2019-05-12T03:26:34.805Z,108.00
2019-05-12T03:27:35.136Z,116.00
2019-05-12T03:28:35.560Z,128.00
2019-05-12T03:29:34.530Z,140.00
2019-05-12T03:30:38.294Z,148.00
2019-05-12T03:31:39.877Z,164.00
2019-05-12T03:32:37.937Z,172.00
2019-05-12T03:33:41.964Z,184.00
2019-05-12T03:34:38.427Z,200.00
2019-05-12T03:35:41.568Z,212.00
2019-05-12T03:36:41.141Z,228.00
2019-05-12T03:37:35.331Z,240.00
2019-05-12T03:38:35.982Z,260.00
2019-05-12T03:39:34.444Z,276.00
2019-05-12T03:40:37.541Z,296.00
2019-05-12T03:41:34.863Z,316.00
2019-05-12T03:42:35.454Z,332.00
2019-05-12T03:43:35.124Z,352.00
2019-05-12T03:44:35.258Z,368.00
2019-05-12T03:45:35.920Z,384.00
2019-05-12T03:46:35.279Z,400.00
2019-05-12T03:47:35.561Z,424.00
2019-05-12T03:48:34.958Z,440.00
2019-05-12T03:49:34.757Z,460.00
2019-05-12T03:50:35.450Z,480.00
2019-05-12T03:51:34.934Z,504.00
2019-05-12T03:52:34.915Z,524.00
2019-05-12T03:53:35.243Z,548.00
2019-05-12T03:54:34.969Z,572.00
2019-05-12T03:55:38.149Z,592.00
2019-05-12T03:56:34.682Z,616.00
2019-05-12T03:57:34.544Z,640.00
2019-05-12T03:58:34.585Z,668.00
2019-05-12T03:59:34.858Z,696.00
2019-05-12T04:00:35.678Z,720.00
2019-05-12T04:01:36.354Z,748.00
2019-05-12T04:02:34.158Z,780.00
2019-05-12T04:03:34.578Z,812.00
2019-05-12T04:04:34.756Z,844.00
2019-05-12T04:05:34.867Z,884.00
2019-05-12T04:06:34.643Z,932.00
2019-05-12T04:07:34.514Z,980.00
2019-05-12T04:08:34.690Z,1032.00
2019-05-12T04:09:34.873Z,1080.00
2019-05-12T04:10:35.343Z,1132.00
2019-05-12T04:11:35.673Z,1180.00
2019-05-12T04:12:34.629Z,1228.00
2019-05-12T04:13:34.164Z,1280.00
2019-05-12T04:14:34.550Z,1332.00
2019-05-12T04:15:34.666Z,1380.00
2019-05-12T04:16:36.408Z,1424.00
2019-05-12T04:17:34.957Z,1460.00
2019-05-12T04:18:34.821Z,1500.00
2019-05-12T04:19:34.420Z,1544.00
2019-05-12T04:20:35.670Z,1588.00
2019-05-12T04:21:35.072Z,1624.00
2019-05-12T04:22:35.255Z,1664.00
2019-05-12T04:23:34.885Z,1704.00
2019-05-12T04:24:35.888Z,1740.00
2019-05-12T04:25:47.793Z,1768.00
2019-05-12T04:26:36.324Z,1800.00
2019-05-12T04:27:34.920Z,1840.00
2019-05-12T04:28:35.080Z,1884.00
2019-05-12T04:29:34.923Z,1936.00
2019-05-12T04:30:35.408Z,1996.00
2019-05-12T04:31:34.753Z,2056.00
2019-05-12T04:32:35.682Z,2120.00
2019-05-12T04:33:34.679Z,2176.00
2019-05-12T04:34:34.291Z,2240.00
2019-05-12T04:35:34.814Z,2304.00
2019-05-12T04:36:35.517Z,2368.00
2019-05-12T04:37:35.209Z,2424.00
2019-05-12T04:38:35.506Z,2484.00
2019-05-12T04:39:34.141Z,2520.00
2019-05-12T04:40:35.993Z,2544.00
2019-05-12T04:41:35.248Z,2572.00
2019-05-12T04:42:34.948Z,2576.00
2019-05-12T04:43:35.277Z,2572.00
2019-05-12T04:44:34.692Z,2596.00
2019-05-12T04:45:34.729Z,2628.00
2019-05-12T04:46:34.650Z,2680.00
2019-05-12T04:47:34.985Z,2748.00
2019-05-12T04:48:35.780Z,2800.00
2019-05-12T04:49:34.559Z,2824.00
2019-05-12T04:50:35.324Z,2836.00
2019-05-12T04:51:34.923Z,2852.00
2019-05-12T04:52:35.127Z,2848.00
2019-05-12T04:53:35.041Z,2856.00
2019-05-12T04:54:35.341Z,2900.00
2019-05-12T04:55:35.251Z,2948.00
2019-05-12T04:56:35.452Z,3012.00
2019-05-12T04:57:34.698Z,3068.00
2019-05-12T04:58:35.055Z,3100.00
2019-05-12T04:59:34.474Z,3152.00
2019-05-12T05:00:34.937Z,3208.00
2019-05-12T05:01:34.698Z,3264.00
2019-05-12T05:02:36.269Z,3336.00
2019-05-12T05:03:34.935Z,3392.00
2019-05-12T05:04:34.707Z,3404.00
2019-05-12T05:05:35.178Z,3400.00
2019-05-12T05:06:34.218Z,3416.00
2019-05-12T05:07:32.134Z,3444.00
2019-05-12T05:08:34.750Z,3464.00
2019-05-12T05:09:34.822Z,3468.00
2019-05-12T05:10:34.165Z,3496.00
2019-05-12T05:11:34.593Z,3524.00
2019-05-12T05:12:34.512Z,3540.00
2019-05-12T05:13:36.653Z,3580.00
2019-05-12T05:14:34.066Z,3624.00
2019-05-12T05:15:34.809Z,3648.00
2019-05-12T05:16:34.372Z,3656.00
2019-05-12T05:17:34.529Z,3632.00
2019-05-12T05:18:34.288Z,3608.00
2019-05-12T05:19:33.728Z,3576.00
2019-05-12T05:20:34.244Z,3540.00
2019-05-12T05:21:34.251Z,3508.00
2019-05-12T05:22:33.336Z,3508.00
2019-05-12T05:23:33.513Z,3508.00
2019-05-12T05:24:33.857Z,3520.00
2019-05-12T05:25:33.951Z,3544.00
2019-05-12T05:26:34.926Z,3544.00
2019-05-12T05:27:33.887Z,3572.00
2019-05-12T05:28:33.851Z,3612.00
2019-05-12T05:29:33.566Z,3680.00
2019-05-12T05:30:33.999Z,3828.00
2019-05-12T05:31:33.712Z,4016.00
2019-05-12T05:32:33.841Z,4204.00
2019-05-12T05:33:33.869Z,4408.00
2019-05-12T05:34:31.636Z,4612.00
2019-05-12T05:35:35.156Z,4752.00
2019-05-12T05:36:34.350Z,4896.00
2019-05-12T05:37:36.942Z,5040.00
2019-05-12T05:38:31.556Z,5188.00
2019-05-12T05:39:35.743Z,5308.00
2019-05-12T05:40:31.523Z,5372.00
2019-05-12T05:41:31.508Z,5396.00
2019-05-12T05:42:33.400Z,5320.00
2019-05-12T05:43:33.311Z,5144.00
2019-05-12T05:44:36.318Z,5040.00
2019-05-12T05:45:31.425Z,4956.00
2019-05-12T05:46:33.649Z,4888.00
2019-05-12T05:47:33.480Z,4880.00
2019-05-12T05:48:34.460Z,4876.00
2019-05-12T05:49:31.354Z,4932.00
2019-05-12T05:50:31.335Z,4956.00
2019-05-12T05:51:33.532Z,4988.00
2019-05-12T05:52:37.028Z,5076.00
2019-05-12T05:53:33.430Z,5248.00
2019-05-12T05:54:35.215Z,5500.00
2019-05-12T05:55:33.460Z,5820.00
2019-05-12T05:56:41.418Z,6264.00
2019-05-12T05:57:31.216Z,6508.00
2019-05-12T05:58:33.781Z,6448.00
2019-05-12T05:59:35.864Z,6132.00
2019-05-12T06:00:31.152Z,5708.00
2019-05-12T06:01:31.171Z,5388.00
2019-05-12T06:02:33.548Z,5360.00
2019-05-12T06:03:31.100Z,5476.00
2019-05-12T06:04:31.086Z,5732.00
2019-05-12T06:05:31.155Z,6048.00
2019-05-12T06:06:31.048Z,6344.00
2019-05-12T06:07:35.770Z,6600.00
2019-05-12T06:08:31.011Z,6680.00
2019-05-12T06:09:30.998Z,6612.00
2019-05-12T06:10:36.057Z,6464.00
2019-05-12T06:11:30.962Z,6380.00
2019-05-12T06:12:32.927Z,6408.00
2019-05-12T06:13:32.391Z,6408.00
2019-05-12T06:14:30.908Z,6216.00
2019-05-12T06:15:35.814Z,6004.00
2019-05-12T06:16:30.871Z,5760.00
2019-05-12T06:17:30.856Z,5556.00
2019-05-12T06:18:33.284Z,5324.00
2019-05-12T06:19:30.823Z,5140.00
2019-05-12T06:20:30.798Z,5044.00
2019-05-12T06:21:36.299Z,5032.00
2019-05-12T06:22:30.765Z,4988.00
2019-05-12T06:23:34.883Z,4916.00
2019-05-12T06:24:30.728Z,4892.00
2019-05-12T06:25:41.118Z,5000.00
2019-05-12T06:26:34.858Z,5212.00
2019-05-12T06:27:32.857Z,5540.00
2019-05-12T06:28:31.189Z,5856.00
2019-05-12T06:29:30.643Z,6128.00
2019-05-12T06:30:37.511Z,6244.00
2019-05-12T06:31:30.610Z,6276.00
2019-05-12T06:32:30.589Z,6220.00
2019-05-12T06:33:31.505Z,6288.00
2019-05-12T06:34:30.558Z,6468.00
2019-05-12T06:35:30.978Z,6512.00
2019-05-12T06:36:30.519Z,6520.00
2019-05-12T06:37:30.505Z,6464.00
2019-05-12T06:38:31.102Z,6172.00
2019-05-12T06:39:30.467Z,5916.00
2019-05-12T06:40:30.850Z,5656.00
2019-05-12T06:41:30.437Z,5396.00
2019-05-12T06:42:30.417Z,5288.00
2019-05-12T06:43:35.000Z,5096.00
2019-05-12T06:44:30.381Z,4964.00
2019-05-12T06:45:33.981Z,5184.00
2019-05-12T06:46:30.343Z,5412.00
2019-05-12T06:47:30.331Z,5552.00
2019-05-12T06:48:30.435Z,5628.00
2019-05-12T06:49:30.295Z,5680.00
2019-05-12T06:50:36.960Z,5688.00
2019-05-12T06:51:30.261Z,5504.00
2019-05-12T06:52:30.243Z,5332.00
2019-05-12T06:53:31.141Z,5408.00
2019-05-12T06:54:30.207Z,5584.00
2019-05-12T06:55:36.653Z,5784.00
2019-05-12T06:56:30.171Z,6116.00
2019-05-12T06:57:30.159Z,6144.00
2019-05-12T06:58:32.145Z,6204.00
2019-05-12T06:59:30.126Z,6568.00
2019-05-12T07:00:31.901Z,6776.00
2019-05-12T07:01:30.088Z,7048.00
2019-05-12T07:02:34.749Z,7252.00
2019-05-12T07:03:31.505Z,7452.00
2019-05-12T07:04:30.037Z,7664.00
2019-05-12T07:05:33.783Z,7872.00
2019-05-12T07:06:30.009Z,7924.00
2019-05-12T07:07:35.466Z,7980.00
2019-05-12T07:08:32.114Z,8220.00
2019-05-12T07:09:32.515Z,8708.00
2019-05-12T07:10:43.564Z,8884.00
2019-05-12T07:11:41.483Z,8952.00
2019-05-12T07:12:36.519Z,8912.00
2019-05-12T07:13:29.885Z,8880.00
2019-05-12T07:14:29.869Z,9100.00
2019-05-12T07:15:35.747Z,9388.00
2019-05-12T07:16:30.456Z,9732.00
2019-05-12T07:17:29.820Z,10180.00
2019-05-12T07:18:32.866Z,10568.00
2019-05-12T07:19:29.937Z,11252.00
2019-05-12T07:20:35.648Z,11960.00
2019-05-12T07:21:29.756Z,12988.00
2019-05-12T07:22:31.245Z,13556.00
2019-05-12T07:23:30.303Z,13908.00
2019-05-12T07:24:29.709Z,13476.00
2019-05-12T07:25:33.565Z,12860.00
2019-05-12T07:26:29.678Z,12588.00
2019-05-12T07:27:36.634Z,12952.00
2019-05-12T07:28:30.467Z,13552.00
2019-05-12T07:29:29.632Z,14368.00
2019-05-12T07:30:31.909Z,14896.00
2019-05-12T07:31:29.597Z,13008.00
2019-05-12T07:32:29.579Z,14068.00
2019-05-12T07:33:32.788Z,21024.00
2019-05-12T07:34:29.553Z,26720.00
2019-05-12T07:35:29.533Z,29888.00
2019-05-12T07:36:29.521Z,34656.00
2019-05-12T07:37:30.065Z,52544.00
2019-05-12T07:38:29.488Z,57408.00
2019-05-12T07:39:29.474Z,55840.00
2019-05-12T07:40:30.561Z,57984.00
2019-05-12T07:41:29.446Z,47968.00
2019-05-12T07:42:31.543Z,49856.00
2019-05-12T07:43:29.424Z,64800.00
2019-05-12T07:44:34.402Z,59104.00
2019-05-12T07:45:29.395Z,63392.00
2019-05-12T07:46:29.383Z,66752.00
2019-05-12T07:47:29.470Z,65888.00
2019-05-12T07:48:29.362Z,67648.00
2019-05-12T07:49:34.381Z,66880.00
2019-05-12T07:50:29.334Z,62720.00
2019-05-12T07:51:30.451Z,62880.00
2019-05-12T07:52:29.372Z,63904.00
2019-05-12T07:53:29.308Z,67616.00
2019-05-12T07:54:34.602Z,64448.00
2019-05-12T07:55:29.297Z,64416.00
2019-05-12T07:56:32.863Z,64192.00
2019-05-12T07:57:29.272Z,64768.00
2019-05-12T07:58:29.258Z,63264.00
2019-05-12T07:59:35.678Z,64256.00
2019-05-12T08:00:29.249Z,66848.00
2019-05-12T08:01:29.240Z,68064.00
2019-05-12T08:02:31.810Z,68736.00
2019-05-12T08:03:29.228Z,70688.00
2019-05-12T08:04:31.777Z,71744.00
2019-05-12T08:05:29.211Z,74944.00
2019-05-12T08:06:32.566Z,78912.00
2019-05-12T08:07:30.011Z,79712.00
2019-05-12T08:08:29.204Z,74528.00
2019-05-12T08:09:32.559Z,72800.00
2019-05-12T08:10:29.184Z,72608.00
2019-05-12T08:11:36.708Z,70016.00
2019-05-12T08:12:29.179Z,70848.00
2019-05-12T08:13:31.302Z,73760.00
2019-05-12T08:14:29.568Z,75296.00
2019-05-12T08:15:29.163Z,77280.00
2019-05-12T08:16:33.663Z,77344.00
2019-05-12T08:17:29.159Z,75008.00
2019-05-12T08:18:30.534Z,76512.00
2019-05-12T08:19:29.148Z,75424.00
2019-05-12T08:20:29.147Z,74304.00
2019-05-12T08:21:29.142Z,74304.00
2019-05-12T08:22:29.567Z,73856.00
2019-05-12T08:23:29.138Z,78720.00
2019-05-12T08:24:29.158Z,78176.00
2019-05-12T08:25:29.132Z,74784.00
2019-05-12T08:26:29.129Z,72576.00
2019-05-12T08:27:29.128Z,73568.00
2019-05-12T08:28:35.705Z,61568.00
2019-05-12T08:29:29.124Z,68640.00
2019-05-12T08:30:29.121Z,49312.00
2019-05-12T08:31:33.083Z,70528.00
2019-05-12T08:32:29.129Z,78624.00
2019-05-12T08:33:29.117Z,84000.00
2019-05-12T08:34:29.115Z,78944.00
2019-05-12T08:35:34.590Z,79360.00
2019-05-12T08:36:29.113Z,64000.00
2019-05-12T08:37:29.110Z,58176.00
2019-05-12T08:38:29.104Z,60704.00
2019-05-12T08:39:29.108Z,61600.00
2019-05-12T08:40:29.104Z,59520.00
2019-05-12T08:41:29.102Z,60864.00
2019-05-12T08:42:29.102Z,64352.00
2019-05-12T08:43:29.100Z,62976.00
2019-05-12T08:44:33.689Z,69760.00
2019-05-12T08:45:34.100Z,71744.00
2019-05-12T08:46:29.096Z,69184.00
2019-05-12T08:47:34.388Z,72896.00
2019-05-12T08:48:29.128Z,70816.00
2019-05-12T08:49:34.047Z,64160.00
2019-05-12T08:50:31.556Z,61504.00
2019-05-12T08:51:29.089Z,61920.00
2019-05-12T08:52:30.464Z,62784.00
2019-05-12T08:53:29.091Z,68896.00
2019-05-12T08:54:29.096Z,72224.00
2019-05-12T08:55:31.549Z,72064.00
2019-05-12T08:56:29.086Z,73600.00
2019-05-12T08:57:34.835Z,72128.00
2019-05-12T08:58:33.944Z,67872.00
2019-05-12T08:59:29.082Z,70176.00
2019-05-12T09:00:29.078Z,68672.00
2019-05-12T09:01:30.729Z,67200.00
2019-05-12T09:02:29.080Z,64992.00
2019-05-12T09:03:30.401Z,64128.00
2019-05-12T09:04:29.102Z,64256.00
2019-05-12T09:05:35.766Z,62432.00
2019-05-12T09:06:29.075Z,60096.00
2019-05-12T09:07:30.394Z,60416.00
2019-05-12T09:08:29.072Z,61952.00
2019-05-12T09:09:29.074Z,63328.00
2019-05-12T09:10:29.067Z,64256.00
2019-05-12T09:11:29.070Z,62848.00
2019-05-12T09:12:29.068Z,57632.00
2019-05-12T09:13:29.063Z,58016.00
2019-05-12T09:14:35.544Z,62944.00
2019-05-12T09:15:29.064Z,60224.00
2019-05-12T09:16:29.071Z,58976.00
2019-05-12T09:17:29.064Z,54688.00
2019-05-12T09:18:35.089Z,59072.00
2019-05-12T09:19:29.057Z,66080.00
2019-05-12T09:20:29.055Z,66240.00
2019-05-12T09:21:31.573Z,61952.00
2019-05-12T09:22:29.054Z,65472.00
2019-05-12T09:23:32.827Z,61248.00
2019-05-12T09:24:29.055Z,68320.00
2019-05-12T09:25:29.050Z,70112.00
2019-05-12T09:26:29.666Z,66176.00
2019-05-12T09:27:29.048Z,62944.00
2019-05-12T09:28:29.045Z,64384.00
2019-05-12T09:29:29.047Z,63808.00
2019-05-12T09:30:29.041Z,65792.00
2019-05-12T09:31:29.624Z,60320.00
2019-05-12T09:32:29.048Z,52256.00
2019-05-12T09:33:31.881Z,40960.00
2019-05-12T09:34:29.388Z,32256.00
2019-05-12T09:35:34.789Z,23456.00
2019-05-12T09:36:29.037Z,20416.00
2019-05-12T09:37:30.930Z,19392.00
2019-05-12T09:38:29.031Z,18400.00
2019-05-12T09:39:36.416Z,17952.00
2019-05-12T09:40:29.030Z,17472.00
2019-05-12T09:41:34.327Z,17184.00
2019-05-12T09:42:30.176Z,16992.00
2019-05-12T09:43:29.028Z,16864.00
2019-05-12T09:44:30.522Z,16800.00
2019-05-12T09:45:29.027Z,16768.00
2019-05-12T09:46:34.244Z,16416.00
2019-05-12T09:47:29.152Z,16544.00
2019-05-12T09:48:29.014Z,16576.00
2019-05-12T09:49:39.044Z,16544.00
2019-05-12T09:50:29.009Z,16448.00
2019-05-12T09:51:32.912Z,16576.00
2019-05-12T09:52:29.018Z,16576.00
2019-05-12T09:53:29.006Z,16480.00
2019-05-12T09:54:35.589Z,16352.00
2019-05-12T09:55:29.001Z,16032.00
2019-05-12T09:56:29.000Z,16128.00
2019-05-12T09:57:32.432Z,15968.00
2019-05-12T09:58:28.997Z,15904.00
2019-05-12T09:59:28.991Z,15872.00
2019-05-12T10:00:30.430Z,16128.00
2019-05-12T10:01:34.086Z,16128.00
2019-05-12T10:02:28.986Z,16384.00
2019-05-12T10:03:30.951Z,16704.00
2019-05-12T10:04:28.985Z,17376.00
2019-05-12T10:05:30.571Z,31904.00
2019-05-12T10:06:28.977Z,80640.00
2019-05-12T10:07:28.977Z,96320.00
2019-05-12T10:08:29.370Z,95776.00
2019-05-12T10:09:28.973Z,100640.00
2019-05-12T10:10:29.246Z,101696.00
2019-05-12T10:11:28.971Z,102592.00
2019-05-12T10:12:29.889Z,104544.00
2019-05-12T10:13:30.302Z,103136.00
2019-05-12T10:14:28.965Z,90656.00
2019-05-12T10:15:28.963Z,99744.00
2019-05-12T10:16:28.965Z,87904.00
2019-05-12T10:17:30.354Z,84512.00
2019-05-12T10:18:28.960Z,71296.00
2019-05-12T10:19:28.957Z,102080.00
2019-05-12T10:20:29.320Z,103040.00
2019-05-12T10:21:28.963Z,99264.00
2019-05-12T10:22:30.002Z,99264.00
2019-05-12T10:23:28.956Z,109312.00
2019-05-12T10:24:32.457Z,109920.00
2019-05-12T10:25:30.738Z,103200.00
2019-05-12T10:26:28.952Z,93632.00
2019-05-12T10:27:31.938Z,87104.00
2019-05-12T10:28:28.949Z,87712.00
2019-05-12T10:29:30.738Z,96480.00
2019-05-12T10:30:28.954Z,104768.00
2019-05-12T10:31:29.653Z,102112.00
2019-05-12T10:32:28.952Z,90560.00
2019-05-12T10:33:28.957Z,85216.00
2019-05-12T10:34:29.514Z,86304.00
2019-05-12T10:35:28.952Z,97184.00
2019-05-12T10:36:28.952Z,106816.00
2019-05-12T10:37:29.507Z,113216.00
2019-05-12T10:38:28.956Z,109632.00
2019-05-12T10:39:28.952Z,104544.00
2019-05-12T10:40:28.952Z,100352.00
2019-05-12T10:41:28.958Z,101216.00
2019-05-12T10:42:28.956Z,101248.00
2019-05-12T10:43:28.964Z,102528.00
2019-05-12T10:44:36.197Z,103776.00
2019-05-12T10:45:29.979Z,108032.00
2019-05-12T10:46:28.962Z,112192.00
2019-05-12T10:47:28.960Z,112480.00
2019-05-12T10:48:28.963Z,110944.00
2019-05-12T10:49:28.968Z,108256.00
2019-05-12T10:50:28.966Z,106464.00
2019-05-12T10:51:28.965Z,108704.00
2019-05-12T10:52:29.515Z,110336.00
2019-05-12T10:53:28.970Z,109184.00
2019-05-12T10:54:29.387Z,108000.00
2019-05-12T10:55:28.976Z,111200.00
2019-05-12T10:56:28.977Z,110976.00
2019-05-12T10:57:28.975Z,112800.00
2019-05-12T10:58:28.974Z,112448.00
2019-05-12T10:59:33.149Z,106400.00
2019-05-12T11:00:28.976Z,103520.00
2019-05-12T11:01:28.981Z,103808.00
2019-05-12T11:02:30.618Z,108928.00
2019-05-12T11:03:28.984Z,113952.00
2019-05-12T11:04:35.758Z,113728.00
2019-05-12T11:05:28.990Z,110432.00
2019-05-12T11:06:28.988Z,98560.00
2019-05-12T11:07:30.004Z,103104.00
2019-05-12T11:08:28.990Z,108288.00
2019-05-12T11:09:31.634Z,110816.00
2019-05-12T11:10:28.996Z,106048.00
2019-05-12T11:11:32.845Z,102400.00
2019-05-12T11:12:29.351Z,96672.00
2019-05-12T11:13:29.000Z,95072.00
2019-05-12T11:14:30.507Z,95008.00
2019-05-12T11:15:29.007Z,91328.00
2019-05-12T11:16:30.908Z,93120.00
2019-05-12T11:17:29.006Z,94336.00
2019-05-12T11:18:30.595Z,94784.00
2019-05-12T11:19:29.008Z,89856.00
2019-05-12T11:20:29.013Z,86400.00
2019-05-12T11:21:29.014Z,80960.00
2019-05-12T11:22:29.012Z,77312.00
2019-05-12T11:23:29.028Z,95104.00
2019-05-12T11:24:29.025Z,91616.00
2019-05-12T11:25:29.017Z,87328.00
2019-05-12T11:26:29.029Z,83296.00
2019-05-12T11:27:29.028Z,90688.00
2019-05-12T11:28:29.025Z,97184.00
2019-05-12T11:29:42.506Z,104608.00
2019-05-12T11:30:29.114Z,97312.00
2019-05-12T11:31:29.029Z,91296.00
2019-05-12T11:32:36.406Z,97632.00
2019-05-12T11:33:29.038Z,92448.00
2019-05-12T11:34:29.039Z,93504.00
2019-05-12T11:35:29.041Z,105664.00
2019-05-12T11:36:29.146Z,111232.00
2019-05-12T11:37:29.189Z,71424.00
2019-05-12T11:38:29.041Z,111264.00
2019-05-12T11:39:30.692Z,111040.00
2019-05-12T11:40:29.044Z,112896.00
2019-05-12T11:41:29.044Z,112672.00
2019-05-12T11:42:29.047Z,107136.00
2019-05-12T11:43:29.876Z,104000.00
2019-05-12T11:44:29.047Z,101696.00
2019-05-12T11:45:29.058Z,105856.00
2019-05-12T11:46:29.057Z,109472.00
2019-05-12T11:47:29.059Z,116160.00
2019-05-12T11:48:29.058Z,118400.00
2019-05-12T11:49:29.065Z,117344.00
2019-05-12T11:50:29.061Z,115264.00
2019-05-12T11:51:30.435Z,107392.00
2019-05-12T11:52:29.074Z,104160.00
2019-05-12T11:53:30.628Z,97984.00
2019-05-12T11:54:29.080Z,91360.00
2019-05-12T11:55:31.586Z,84832.00
2019-05-12T11:56:29.086Z,83008.00
2019-05-12T11:57:30.396Z,86016.00
2019-05-12T11:58:29.079Z,93248.00
2019-05-12T11:59:29.086Z,102912.00
2019-05-12T12:00:29.086Z,111232.00
2019-05-12T12:01:29.087Z,121632.00
2019-05-12T12:02:30.720Z,122784.00
2019-05-12T12:03:29.088Z,120736.00
2019-05-12T12:04:29.417Z,116224.00
2019-05-12T12:05:29.100Z,111264.00
2019-05-12T12:06:29.115Z,104512.00
2019-05-12T12:07:29.097Z,76960.00
2019-05-12T12:08:33.749Z,73312.00
2019-05-12T12:09:29.110Z,39648.00
2019-05-12T12:10:34.141Z,51680.00
2019-05-12T12:11:29.114Z,52288.00
2019-05-12T12:12:29.112Z,47360.00
2019-05-12T12:13:30.159Z,27776.00